createdAt,value
2022-10-18T00:00:46.361Z,4.63
2022-10-18T00:03:12.870Z,4.40
2022-10-18T00:05:42.220Z,3.88
2022-10-18T00:08:08.906Z,4.00
2022-10-18T00:10:35.437Z,4.45
2022-10-18T00:13:01.951Z,4.03
2022-10-18T00:15:28.515Z,4.70
2022-10-18T00:17:55.047Z,4.00
2022-10-18T00:20:21.768Z,4.35
2022-10-18T00:22:48.361Z,3.70
2022-10-18T00:25:15.335Z,4.18
2022-10-18T00:27:42.138Z,4.97
2022-10-18T00:30:09.312Z,4.10
2022-10-18T00:32:40.858Z,4.00
2022-10-18T00:35:09.132Z,4.20
2022-10-18T00:37:36.111Z,4.45
2022-10-18T00:40:03.794Z,4.00
2022-10-18T00:42:34.201Z,4.25
2022-10-18T00:45:15.268Z,3.88
2022-10-18T00:47:44.014Z,3.90
2022-10-18T00:50:11.036Z,4.00
2022-10-18T00:52:47.078Z,4.00
2022-10-18T00:55:13.840Z,4.10
2022-10-18T00:57:43.076Z,4.22
2022-10-18T01:00:10.842Z,4.55
2022-10-18T01:02:40.303Z,4.18
2022-10-18T01:05:07.584Z,3.65
2022-10-18T01:07:55.705Z,4.15
2022-10-18T01:10:30.083Z,4.32
2022-10-18T01:13:11.972Z,4.43
2022-10-18T01:16:04.603Z,3.70
2022-10-18T01:18:40.928Z,4.03
2022-10-18T01:21:14.611Z,3.75
2022-10-18T01:26:48.349Z,3.65
2022-10-18T01:30:01.693Z,3.90
2022-10-18T01:32:34.625Z,3.95
2022-10-18T01:35:09.689Z,4.28
2022-10-18T01:37:37.784Z,3.58
2022-10-18T01:40:07.744Z,3.72
2022-10-18T01:42:35.257Z,3.78
2022-10-18T01:45:04.290Z,3.90
2022-10-18T01:47:31.782Z,3.55
2022-10-18T01:50:00.261Z,3.92
2022-10-18T01:52:27.082Z,4.03
2022-10-18T01:54:55.385Z,3.80
2022-10-18T01:57:28.073Z,4.05
2022-10-18T01:59:57.981Z,3.75
2022-10-18T02:02:39.634Z,4.18
2022-10-18T02:05:29.595Z,3.60
2022-10-18T02:08:12.191Z,3.83
2022-10-18T02:10:49.953Z,3.55
2022-10-18T02:13:20.208Z,3.70
2022-10-18T02:15:50.368Z,3.45
2022-10-18T02:18:25.649Z,3.35
2022-10-18T02:20:53.578Z,3.85
2022-10-18T02:23:23.389Z,3.88
2022-10-18T02:25:51.031Z,3.75
2022-10-18T02:28:18.082Z,4.00
2022-10-18T02:30:53.027Z,3.80
2022-10-18T02:33:38.591Z,3.38
2022-10-18T02:36:18.531Z,3.70
2022-10-18T02:38:46.734Z,4.03
2022-10-18T02:41:22.866Z,4.28
2022-10-18T02:43:49.603Z,3.60
2022-10-18T02:46:16.488Z,4.03
2022-10-18T02:48:43.104Z,3.70
2022-10-18T02:51:09.891Z,3.72
2022-10-18T02:53:36.520Z,3.67
2022-10-18T02:56:03.393Z,3.97
2022-10-18T02:58:30.246Z,3.70
2022-10-18T03:00:56.957Z,3.47
2022-10-18T03:03:23.601Z,3.90
2022-10-18T03:05:51.194Z,3.80
2022-10-18T03:08:18.378Z,3.38
2022-10-18T03:10:46.645Z,3.92
2022-10-18T03:13:13.552Z,4.03
2022-10-18T03:15:43.041Z,3.90
2022-10-18T03:18:10.059Z,4.50
2022-10-18T03:20:36.801Z,4.10
2022-10-18T03:23:03.507Z,3.80
2022-10-18T03:25:30.295Z,3.80
2022-10-18T03:27:56.919Z,3.65
2022-10-18T03:30:23.552Z,3.63
2022-10-18T03:32:50.576Z,3.85
2022-10-18T03:35:17.319Z,3.50
2022-10-18T03:37:44.061Z,4.05
2022-10-18T03:40:10.984Z,4.22
2022-10-18T03:42:37.640Z,4.10
2022-10-18T03:45:05.029Z,3.30
2022-10-18T03:47:31.720Z,3.80
2022-10-18T03:49:58.344Z,4.30
2022-10-18T03:52:25.032Z,3.15
2022-10-18T03:54:51.711Z,3.47
2022-10-18T03:57:18.374Z,3.60
2022-10-18T03:59:45.096Z,3.60
2022-10-18T04:02:11.725Z,3.65
2022-10-18T04:04:38.352Z,3.30
2022-10-18T04:07:05.134Z,3.50
2022-10-18T04:09:31.819Z,3.72
2022-10-18T04:11:58.585Z,3.90
2022-10-18T04:14:25.287Z,3.67
2022-10-18T04:16:51.906Z,3.90
2022-10-18T04:19:18.933Z,3.80
2022-10-18T04:21:45.621Z,3.90
2022-10-18T04:24:12.277Z,3.92
2022-10-18T04:26:38.917Z,3.72
2022-10-18T04:29:05.734Z,5.97
2022-10-18T04:31:32.412Z,3.67
2022-10-18T04:33:59.014Z,4.10
2022-10-18T04:36:25.678Z,4.00
2022-10-18T04:38:52.422Z,4.25
2022-10-18T04:41:19.023Z,3.60
2022-10-18T04:46:17.392Z,3.13
2022-10-18T04:48:44.013Z,3.70
2022-10-18T04:51:10.862Z,3.70
2022-10-18T04:53:37.603Z,3.63
2022-10-18T04:56:04.346Z,3.58
2022-10-18T04:58:30.991Z,3.35
2022-10-18T05:00:57.626Z,3.88
2022-10-18T05:03:24.244Z,3.90
2022-10-18T05:06:01.466Z,3.35
2022-10-18T05:08:29.691Z,3.67
2022-10-18T05:10:56.492Z,3.58
2022-10-18T05:13:23.195Z,3.55
2022-10-18T05:15:49.883Z,3.83
2022-10-18T05:18:16.761Z,3.60
2022-10-18T05:20:43.388Z,3.60
2022-10-18T05:23:12.735Z,4.30
2022-10-18T05:25:40.774Z,3.83
2022-10-18T05:28:11.134Z,3.33
2022-10-18T05:30:48.004Z,3.20
2022-10-18T05:33:14.635Z,3.40
2022-10-18T05:35:41.268Z,3.80
2022-10-18T05:38:10.839Z,4.07
2022-10-18T05:40:40.346Z,3.53
2022-10-18T05:43:06.979Z,3.42
2022-10-18T05:45:33.662Z,3.70
2022-10-18T05:48:00.343Z,3.83
2022-10-18T05:50:27.004Z,3.45
2022-10-18T05:53:06.751Z,3.38
2022-10-18T05:55:39.521Z,3.28
2022-10-18T05:58:06.292Z,3.17
2022-10-18T06:00:32.975Z,3.88
2022-10-18T06:03:00.525Z,3.58
2022-10-18T06:05:27.817Z,3.50
2022-10-18T06:07:54.553Z,3.80
2022-10-18T06:10:21.206Z,3.92
2022-10-18T06:12:47.889Z,3.97
2022-10-18T06:15:14.713Z,3.15
2022-10-18T06:17:41.356Z,3.55
2022-10-18T06:20:08.628Z,3.47
2022-10-18T06:22:35.664Z,3.95
2022-10-18T06:25:02.504Z,3.47
2022-10-18T06:27:31.716Z,3.60
2022-10-18T06:29:58.641Z,3.55
2022-10-18T06:32:25.439Z,3.28
2022-10-18T06:34:52.314Z,3.05
2022-10-18T06:37:18.979Z,3.30
2022-10-18T06:39:45.709Z,3.42
2022-10-18T06:42:12.556Z,3.30
2022-10-18T06:44:39.177Z,3.60
2022-10-18T06:47:07.970Z,5.63
2022-10-18T06:49:34.585Z,3.55
2022-10-18T06:52:01.254Z,3.60
2022-10-18T06:54:27.915Z,3.28
2022-10-18T06:56:58.102Z,3.67
2022-10-18T06:59:27.501Z,3.90
2022-10-18T07:01:57.155Z,5.43
2022-10-18T07:04:23.932Z,4.07
2022-10-18T07:06:50.572Z,4.20
2022-10-18T07:09:17.187Z,3.75
2022-10-18T07:11:43.878Z,5.03
2022-10-18T07:14:12.722Z,5.20
2022-10-18T07:16:42.814Z,4.78
2022-10-18T07:19:09.545Z,4.30
2022-10-18T07:21:36.611Z,4.15
2022-10-18T07:24:03.391Z,4.00
2022-10-18T07:26:36.065Z,3.70
2022-10-18T07:29:07.868Z,3.80
2022-10-18T07:31:35.610Z,3.40
2022-10-18T07:34:04.952Z,3.40
2022-10-18T07:36:31.705Z,3.53
2022-10-18T07:38:58.316Z,3.50
2022-10-18T07:41:25.255Z,3.53
2022-10-18T07:43:52.897Z,3.45
2022-10-18T07:46:21.475Z,3.40
2022-10-18T07:48:48.477Z,3.33
2022-10-18T07:51:15.333Z,3.60
2022-10-18T07:53:42.017Z,3.60
2022-10-18T07:56:15.943Z,3.70
2022-10-18T07:58:47.148Z,4.00
2022-10-18T08:01:15.193Z,4.05
2022-10-18T08:03:42.846Z,3.40
2022-10-18T08:06:12.499Z,3.83
2022-10-18T08:08:40.297Z,4.13
2022-10-18T08:11:21.766Z,3.95
2022-10-18T08:13:48.638Z,3.28
2022-10-18T08:16:23.939Z,3.08
2022-10-18T08:18:51.003Z,3.25
2022-10-18T08:21:19.524Z,3.30
2022-10-18T08:23:46.717Z,3.22
2022-10-18T08:26:16.862Z,3.83
2022-10-18T08:28:53.610Z,3.10
2022-10-18T08:31:30.851Z,3.15
2022-10-18T08:33:57.729Z,3.20
2022-10-18T08:36:24.799Z,3.40
2022-10-18T08:38:51.898Z,4.55
2022-10-18T08:41:37.083Z,3.05
2022-10-18T08:44:12.491Z,3.05
2022-10-18T08:46:45.330Z,3.00
2022-10-18T08:49:29.041Z,2.83
2022-10-18T08:51:57.930Z,3.45
2022-10-18T08:54:31.712Z,3.15
2022-10-18T08:57:01.447Z,3.13
2022-10-18T08:59:38.209Z,3.03
2022-10-18T09:02:10.772Z,2.70
2022-10-18T09:04:48.636Z,3.08
2022-10-18T09:07:51.864Z,2.63
2022-10-18T09:10:41.331Z,3.00
2022-10-18T09:13:45.565Z,3.40
2022-10-18T09:16:25.683Z,2.92
2022-10-18T09:19:10.651Z,3.17
2022-10-18T09:21:44.238Z,3.20
2022-10-18T09:24:29.363Z,2.97
2022-10-18T09:27:03.066Z,3.20
2022-10-18T09:32:18.269Z,3.38
2022-10-18T09:34:57.259Z,3.13
2022-10-18T09:37:25.522Z,3.58
2022-10-18T09:40:05.042Z,3.75
2022-10-18T09:42:37.781Z,3.58
2022-10-18T09:45:31.041Z,3.83
2022-10-18T09:48:19.976Z,3.35
2022-10-18T09:51:04.067Z,3.78
2022-10-18T09:53:44.542Z,3.90
2022-10-18T09:56:42.061Z,3.58
2022-10-18T09:59:47.318Z,3.58
2022-10-18T10:02:16.421Z,4.10
2022-10-18T10:04:43.145Z,4.30
2022-10-18T10:07:14.295Z,3.80
2022-10-18T10:10:13.790Z,3.65
2022-10-18T10:12:41.227Z,3.47
2022-10-18T10:15:22.509Z,3.47
2022-10-18T10:17:59.123Z,3.45
2022-10-18T10:20:30.751Z,4.03
2022-10-18T10:23:07.534Z,3.70
2022-10-18T10:25:38.847Z,3.63
2022-10-18T10:28:14.001Z,3.78
2022-10-18T10:30:40.758Z,4.50
2022-10-18T10:33:30.178Z,3.92
2022-10-18T10:36:01.989Z,3.70
2022-10-18T10:38:30.875Z,4.22
2022-10-18T10:40:58.344Z,3.67
2022-10-18T10:43:39.769Z,3.65
2022-10-18T10:46:08.838Z,4.40
2022-10-18T10:48:48.143Z,4.25
2022-10-18T10:51:18.451Z,4.13
2022-10-18T10:54:00.099Z,3.75
2022-10-18T10:56:29.582Z,3.50
2022-10-18T10:59:01.658Z,2.72
2022-10-18T11:01:33.158Z,3.33
2022-10-18T11:04:04.273Z,3.53
2022-10-18T11:06:36.996Z,3.45
2022-10-18T11:09:10.228Z,2.90
2022-10-18T11:11:46.948Z,2.50
2022-10-18T11:14:27.480Z,2.83
2022-10-18T11:16:56.874Z,3.05
2022-10-18T11:19:34.516Z,2.72
2022-10-18T11:22:04.933Z,2.40
2022-10-18T11:24:31.654Z,2.30
2022-10-18T11:27:06.201Z,2.53
2022-10-18T11:29:48.160Z,2.45
2022-10-18T11:32:30.851Z,2.55
2022-10-18T11:35:12.716Z,2.60
2022-10-18T11:37:56.355Z,2.70
2022-10-18T11:40:44.329Z,2.70
2022-10-18T11:43:19.055Z,2.28
2022-10-18T11:46:04.182Z,2.90
2022-10-18T11:48:49.112Z,2.80
2022-10-18T11:51:34.336Z,2.70
2022-10-18T11:54:46.925Z,2.72
2022-10-18T11:57:25.703Z,2.53
2022-10-18T12:00:03.434Z,2.85
2022-10-18T12:03:11.673Z,2.80
2022-10-18T12:05:39.847Z,2.70
2022-10-18T12:08:15.068Z,2.50
2022-10-18T12:11:00.346Z,2.75
2022-10-18T12:13:41.602Z,2.75
2022-10-18T12:16:10.545Z,2.70
2022-10-18T12:18:48.616Z,2.70
2022-10-18T12:21:23.183Z,2.63
2022-10-18T12:23:55.017Z,2.75
2022-10-18T12:26:22.622Z,2.55
2022-10-18T12:29:00.643Z,2.72
2022-10-18T12:31:35.035Z,2.40
2022-10-18T12:34:21.902Z,2.60
2022-10-18T12:37:12.482Z,2.53
2022-10-18T12:40:10.668Z,2.80
2022-10-18T12:42:46.248Z,2.70
2022-10-18T12:45:26.497Z,2.63
2022-10-18T12:47:54.433Z,2.65
2022-10-18T12:50:53.216Z,2.78
2022-10-18T12:53:25.988Z,2.88
2022-10-18T12:55:53.900Z,2.60
2022-10-18T12:58:23.353Z,2.50
2022-10-18T13:00:50.107Z,2.40
2022-10-18T13:03:17.350Z,2.83
2022-10-18T13:05:52.878Z,2.80
2022-10-18T13:08:34.253Z,2.33
2022-10-18T13:11:12.936Z,2.92
2022-10-18T13:13:58.102Z,2.65
2022-10-18T13:16:56.765Z,2.80
2022-10-18T13:19:27.736Z,2.90
2022-10-18T13:22:36.339Z,2.65
2022-10-18T13:25:40.986Z,2.30
2022-10-18T13:28:25.725Z,2.42
2022-10-18T13:31:23.594Z,2.80
2022-10-18T13:33:50.871Z,2.42
2022-10-18T13:36:22.587Z,2.40
2022-10-18T13:38:57.936Z,2.73
2022-10-18T13:41:34.497Z,2.88
2022-10-18T13:44:02.263Z,2.55
2022-10-18T13:46:34.758Z,2.45
2022-10-18T13:49:23.050Z,2.30
2022-10-18T13:52:01.091Z,2.30
2022-10-18T13:54:58.597Z,2.50
2022-10-18T13:57:45.243Z,2.20
2022-10-18T14:00:44.853Z,2.28
2022-10-18T14:04:01.440Z,2.35
2022-10-18T14:06:37.502Z,2.40
2022-10-18T14:09:14.194Z,2.45
2022-10-18T14:12:01.531Z,2.53
2022-10-18T14:14:33.942Z,2.28
2022-10-18T14:17:22.324Z,2.50
2022-10-18T14:20:00.468Z,2.28
2022-10-18T14:23:06.779Z,2.47
2022-10-18T14:25:36.602Z,2.20
2022-10-18T14:28:17.106Z,2.30
2022-10-18T14:30:56.047Z,2.20
2022-10-18T14:33:36.566Z,2.15
2022-10-18T14:36:20.177Z,2.50
2022-10-18T14:38:53.157Z,2.20
2022-10-18T14:41:26.502Z,2.13
2022-10-18T14:44:09.762Z,2.30
2022-10-18T14:46:45.656Z,2.55
2022-10-18T14:49:14.888Z,2.30
2022-10-18T14:51:44.403Z,2.65
2022-10-18T14:54:21.029Z,2.40
2022-10-18T14:56:50.504Z,2.30
2022-10-18T14:59:33.602Z,2.78
2022-10-18T15:02:05.158Z,2.80
2022-10-18T15:04:34.940Z,2.50
2022-10-18T15:07:03.603Z,3.08
2022-10-18T15:09:32.002Z,2.50
2022-10-18T15:12:00.708Z,2.70
2022-10-18T15:14:28.816Z,3.55
2022-10-18T15:17:01.788Z,2.53
2022-10-18T15:19:35.128Z,2.80
2022-10-18T15:22:31.289Z,2.20
2022-10-18T15:25:14.972Z,2.65
2022-10-18T15:28:03.206Z,2.72
2022-10-18T15:30:43.834Z,2.42
2022-10-18T15:33:22.188Z,2.40
2022-10-18T15:35:49.174Z,2.60
2022-10-18T15:38:17.413Z,2.50
2022-10-18T15:40:44.447Z,2.33
2022-10-18T15:43:23.480Z,3.38
2022-10-18T15:46:07.378Z,3.00
2022-10-18T15:48:39.694Z,2.42
2022-10-18T15:51:30.747Z,2.42
2022-10-18T15:54:00.237Z,3.38
2022-10-18T15:56:35.142Z,4.47
2022-10-18T15:59:20.750Z,3.50
2022-10-18T16:01:47.550Z,2.58
2022-10-18T16:04:20.046Z,2.60
2022-10-18T16:06:46.719Z,2.60
2022-10-18T16:09:16.732Z,3.13
2022-10-18T16:11:43.915Z,2.83
2022-10-18T16:14:10.745Z,2.53
2022-10-18T16:16:37.403Z,2.75
2022-10-18T16:19:04.082Z,2.63
2022-10-18T16:21:36.607Z,2.50
2022-10-18T16:24:03.830Z,2.90
2022-10-18T16:26:30.579Z,2.90
2022-10-18T16:28:58.464Z,3.05
2022-10-18T16:31:28.006Z,3.05
2022-10-18T16:33:55.672Z,2.65
2022-10-18T16:36:29.143Z,2.85
2022-10-18T16:41:23.837Z,2.60
2022-10-18T16:43:51.404Z,2.60
2022-10-18T16:46:30.139Z,3.08
2022-10-18T16:48:57.444Z,2.85
2022-10-18T16:51:24.596Z,3.05
2022-10-18T16:53:53.346Z,3.10
2022-10-18T16:56:21.269Z,2.90
2022-10-18T16:58:48.688Z,3.17
2022-10-18T17:01:18.829Z,3.38
2022-10-18T17:03:46.041Z,3.42
2022-10-18T17:06:19.076Z,3.67
2022-10-18T17:08:46.100Z,3.50
2022-10-18T17:11:14.043Z,4.35
2022-10-18T17:13:40.824Z,4.00
2022-10-18T17:16:13.894Z,4.00
2022-10-18T17:18:40.517Z,3.80
2022-10-18T17:21:07.127Z,4.13
2022-10-18T17:23:34.239Z,4.05
2022-10-18T17:26:07.138Z,4.53
2022-10-18T17:28:42.133Z,4.38
2022-10-18T17:31:08.818Z,4.00
2022-10-18T17:33:35.743Z,4.10
2022-10-18T17:36:02.979Z,3.75
2022-10-18T17:38:29.631Z,3.90
2022-10-18T17:40:57.303Z,4.00
2022-10-18T17:43:24.353Z,4.60
2022-10-18T17:45:56.635Z,4.50
2022-10-18T17:48:24.685Z,4.20
2022-10-18T17:50:51.600Z,4.47
2022-10-18T17:53:22.663Z,4.70
2022-10-18T17:55:49.516Z,4.90
2022-10-18T17:58:16.216Z,5.50
2022-10-18T18:00:43.029Z,4.50
2022-10-18T18:03:09.791Z,4.45
2022-10-18T18:05:36.435Z,4.30
2022-10-18T18:08:04.073Z,4.35
2022-10-18T18:10:33.359Z,4.15
2022-10-18T18:13:00.597Z,4.35
2022-10-18T18:15:27.586Z,4.30
2022-10-18T18:17:58.101Z,4.32
2022-10-18T18:20:25.766Z,4.60
2022-10-18T18:22:52.727Z,4.50
2022-10-18T18:25:20.058Z,4.88
2022-10-18T18:27:46.751Z,4.65
2022-10-18T18:30:14.483Z,4.25
2022-10-18T18:32:41.105Z,4.82
2022-10-18T18:35:07.930Z,5.60
2022-10-18T18:37:34.596Z,6.00
2022-10-18T18:40:01.193Z,5.75
2022-10-18T18:42:27.857Z,5.57
2022-10-18T18:44:54.470Z,5.13
2022-10-18T18:47:23.499Z,5.30
2022-10-18T18:49:51.696Z,5.45
2022-10-18T18:52:18.345Z,5.10
2022-10-18T18:54:48.283Z,5.47
2022-10-18T18:57:14.933Z,5.50
2022-10-18T18:59:41.585Z,5.25
2022-10-18T19:02:10.010Z,5.38
2022-10-18T19:04:36.647Z,5.32
2022-10-18T19:07:03.366Z,5.43
2022-10-18T19:09:30.007Z,5.60
2022-10-18T19:11:56.736Z,5.90
2022-10-18T19:14:25.495Z,5.75
2022-10-18T19:16:54.909Z,5.20
2022-10-18T19:19:23.770Z,5.55
2022-10-18T19:21:56.304Z,5.75
2022-10-18T19:24:24.516Z,5.38
2022-10-18T19:27:03.051Z,6.45
2022-10-18T19:29:32.272Z,5.47
2022-10-18T19:32:01.353Z,5.90
2022-10-18T19:34:29.510Z,5.57
2022-10-18T19:36:56.690Z,5.70
2022-10-18T19:39:34.416Z,5.55
2022-10-18T19:42:03.888Z,5.18
2022-10-18T19:44:33.449Z,5.00
2022-10-18T19:47:00.522Z,5.32
2022-10-18T19:49:28.799Z,4.85
2022-10-18T19:51:56.738Z,5.15
2022-10-18T19:54:23.477Z,5.30
2022-10-18T19:56:50.369Z,5.32
2022-10-18T19:59:17.886Z,6.13
2022-10-18T20:01:45.143Z,5.60
2022-10-18T20:04:13.243Z,5.05
2022-10-18T20:06:43.656Z,4.80
2022-10-18T20:09:17.806Z,4.85
2022-10-18T20:11:50.464Z,5.35
2022-10-18T20:14:17.102Z,5.20
2022-10-18T20:16:43.815Z,4.43
2022-10-18T20:19:10.751Z,4.50
2022-10-18T20:21:37.836Z,4.70
2022-10-18T20:24:05.695Z,4.70
2022-10-18T20:26:32.781Z,5.18
2022-10-18T20:29:00.124Z,4.82
2022-10-18T20:31:33.903Z,4.80
2022-10-18T20:36:31.002Z,5.40
2022-10-18T20:38:58.424Z,4.72
2022-10-18T20:41:28.209Z,5.40
2022-10-18T20:43:56.077Z,4.80
2022-10-18T20:46:23.509Z,5.57
2022-10-18T20:48:51.188Z,5.93
2022-10-18T20:51:18.424Z,5.05
2022-10-18T20:53:45.749Z,5.30
2022-10-18T20:56:17.502Z,4.78
2022-10-18T20:58:45.169Z,4.97
2022-10-18T21:01:23.489Z,4.60
2022-10-18T21:03:52.229Z,4.70
2022-10-18T21:06:29.074Z,4.55
2022-10-18T21:09:00.850Z,4.53
2022-10-18T21:11:29.541Z,4.35
2022-10-18T21:14:00.177Z,4.50
2022-10-18T21:16:27.428Z,4.80
2022-10-18T21:18:54.883Z,4.85
2022-10-18T21:21:25.219Z,4.55
2022-10-18T21:23:52.338Z,4.72
2022-10-18T21:26:24.168Z,4.57
2022-10-18T21:28:53.058Z,3.88
2022-10-18T21:31:22.133Z,4.20
2022-10-18T21:33:56.255Z,4.50
2022-10-18T21:36:23.827Z,4.00
2022-10-18T21:38:50.924Z,4.38
2022-10-18T21:41:18.873Z,4.30
2022-10-18T21:43:51.218Z,3.83
2022-10-18T21:46:20.245Z,3.83
2022-10-18T21:48:49.113Z,4.43
2022-10-18T21:51:18.420Z,3.75
2022-10-18T21:53:46.915Z,3.90
2022-10-18T21:56:16.170Z,3.67
2022-10-18T21:58:43.851Z,4.45
2022-10-18T22:01:16.716Z,4.07
2022-10-18T22:03:45.131Z,3.67
2022-10-18T22:06:14.699Z,3.50
2022-10-18T22:08:47.181Z,3.78
2022-10-18T22:11:14.512Z,3.75
2022-10-18T22:13:42.224Z,3.60
2022-10-18T22:16:11.286Z,3.72
2022-10-18T22:18:37.963Z,3.65
2022-10-18T22:21:07.227Z,3.20
2022-10-18T22:23:39.911Z,3.30
2022-10-18T22:26:19.354Z,3.60
2022-10-18T22:28:46.766Z,3.58
2022-10-18T22:31:18.632Z,3.50
2022-10-18T22:33:45.669Z,3.45
2022-10-18T22:36:15.094Z,3.53
2022-10-18T22:38:41.843Z,3.55
2022-10-18T22:41:10.889Z,3.88
2022-10-18T22:43:38.257Z,4.10
2022-10-18T22:46:07.777Z,4.60
2022-10-18T22:48:35.125Z,4.22
2022-10-18T22:51:02.210Z,4.50
2022-10-18T22:53:29.579Z,4.57
2022-10-18T22:55:56.240Z,4.30
2022-10-18T22:58:23.253Z,4.60
2022-10-18T23:00:50.343Z,4.68
2022-10-18T23:03:18.747Z,4.82
2022-10-18T23:05:46.680Z,5.25
2022-10-18T23:08:14.773Z,4.97
2022-10-18T23:10:42.786Z,5.20
2022-10-18T23:13:10.775Z,4.90
2022-10-18T23:15:39.251Z,4.43
2022-10-18T23:18:06.397Z,4.35
2022-10-18T23:20:35.859Z,3.70
2022-10-18T23:23:05.289Z,4.13
2022-10-18T23:25:35.593Z,3.92
2022-10-18T23:28:02.929Z,3.63
2022-10-18T23:30:29.641Z,4.00
2022-10-18T23:32:56.335Z,3.55
2022-10-18T23:35:23.707Z,3.45
2022-10-18T23:37:52.279Z,3.97
2022-10-18T23:40:18.914Z,4.15
2022-10-18T23:42:46.476Z,3.90
2022-10-18T23:45:13.136Z,5.63
2022-10-18T23:47:39.731Z,4.90
2022-10-18T23:50:06.775Z,4.60
2022-10-18T23:52:33.388Z,4.10
2022-10-18T23:55:00.016Z,4.00
2022-10-18T23:57:26.672Z,4.13
2022-10-18T23:59:53.275Z,4.05
